createdAt,value
2019-04-13T00:00:31.154Z,999.21
2019-04-13T00:01:31.240Z,999.18
2019-04-13T00:02:31.326Z,999.21
2019-04-13T00:03:31.414Z,999.17
2019-04-13T00:04:31.506Z,999.17
2019-04-13T00:05:31.590Z,999.17
2019-04-13T00:06:31.676Z,999.16
2019-04-13T00:07:31.763Z,999.19
2019-04-13T00:08:31.849Z,999.11
2019-04-13T00:09:31.957Z,999.14
2019-04-13T00:10:32.046Z,999.14
2019-04-13T00:11:32.136Z,999.19
2019-04-13T00:12:32.221Z,999.17
2019-04-13T00:13:32.308Z,999.17
2019-04-13T00:14:32.398Z,999.13
2019-04-13T00:15:32.493Z,999.13
2019-04-13T00:16:32.578Z,999.13
2019-04-13T00:17:32.664Z,999.07
2019-04-13T00:18:32.749Z,999.07
2019-04-13T00:19:32.839Z,999.06
2019-04-13T00:20:32.928Z,999.06
2019-04-13T00:21:33.014Z,999.08
2019-04-13T00:22:33.098Z,999.06
2019-04-13T00:23:33.185Z,999.01
2019-04-13T00:24:33.271Z,999.05
2019-04-13T00:25:33.360Z,999.01
2019-04-13T00:26:33.444Z,999.02
2019-04-13T00:27:33.532Z,999.02
2019-04-13T00:28:33.625Z,998.96
2019-04-13T00:29:33.711Z,998.98
2019-04-13T00:30:33.799Z,999.03
2019-04-13T00:31:33.880Z,998.99
2019-04-13T00:32:34.001Z,999.00
2019-04-13T00:33:34.063Z,998.96
2019-04-13T00:34:41.256Z,998.97
2019-04-13T00:35:34.240Z,998.95
2019-04-13T00:36:34.325Z,998.97
2019-04-13T00:37:34.416Z,998.95
2019-04-13T00:38:34.549Z,998.93
2019-04-13T00:39:34.581Z,998.91
2019-04-13T00:40:34.665Z,998.90
2019-04-13T00:41:34.755Z,998.91
2019-04-13T00:42:35.862Z,998.86
2019-04-13T00:43:34.934Z,998.88
2019-04-13T00:44:35.021Z,998.89
2019-04-13T00:45:35.108Z,998.87
2019-04-13T00:46:35.197Z,998.85
2019-04-13T00:47:35.283Z,998.87
2019-04-13T00:48:35.373Z,998.88
2019-04-13T00:49:35.459Z,998.91
2019-04-13T00:50:35.546Z,998.87
2019-04-13T00:51:35.633Z,998.88
2019-04-13T00:52:35.720Z,998.88
2019-04-13T00:53:35.810Z,998.85
2019-04-13T00:54:35.895Z,998.85
2019-04-13T00:55:35.985Z,998.88
2019-04-13T00:56:36.071Z,998.86
2019-04-13T00:57:36.159Z,998.84
2019-04-13T00:58:36.247Z,998.82
2019-04-13T00:59:36.337Z,998.83
2019-04-13T01:00:36.430Z,998.76
2019-04-13T01:01:36.536Z,998.81
2019-04-13T01:02:36.597Z,998.77
2019-04-13T01:03:36.684Z,998.76
2019-04-13T01:04:36.772Z,998.81
2019-04-13T01:05:36.862Z,998.82
2019-04-13T01:06:36.947Z,998.73
2019-04-13T01:07:37.057Z,998.77
2019-04-13T01:08:37.119Z,998.78
2019-04-13T01:09:37.206Z,998.76
2019-04-13T01:10:37.303Z,998.73
2019-04-13T01:11:37.381Z,998.76
2019-04-13T01:12:37.468Z,998.72
2019-04-13T01:13:37.554Z,998.65
2019-04-13T01:14:37.649Z,998.74
2019-04-13T01:15:37.742Z,998.70
2019-04-13T01:16:37.828Z,998.71
2019-04-13T01:17:37.923Z,998.68
2019-04-13T01:18:37.996Z,998.70
2019-04-13T01:19:38.083Z,998.71
2019-04-13T01:20:38.173Z,998.69
2019-04-13T01:21:38.256Z,998.72
2019-04-13T01:22:38.344Z,998.71
2019-04-13T01:23:38.434Z,998.72
2019-04-13T01:24:38.530Z,998.71
2019-04-13T01:25:38.622Z,998.67
2019-04-13T01:26:38.705Z,998.71
2019-04-13T01:27:38.795Z,998.73
2019-04-13T01:28:38.883Z,998.66
2019-04-13T01:29:38.968Z,998.71
2019-04-13T01:30:39.056Z,998.70
2019-04-13T01:31:39.141Z,998.71
2019-04-13T01:32:39.231Z,998.67
2019-04-13T01:33:39.316Z,998.71
2019-04-13T01:34:39.407Z,998.66
2019-04-13T01:35:39.494Z,998.69
2019-04-13T01:36:39.575Z,998.66
2019-04-13T01:37:39.666Z,998.63
2019-04-13T01:38:39.752Z,998.65
2019-04-13T01:39:39.839Z,998.62
2019-04-13T01:40:39.925Z,998.66
2019-04-13T01:41:40.016Z,998.64
2019-04-13T01:42:40.106Z,998.59
2019-04-13T01:43:40.189Z,998.62
2019-04-13T01:44:40.280Z,998.64
2019-04-13T01:45:40.362Z,998.64
2019-04-13T01:46:40.447Z,998.61
2019-04-13T01:47:40.519Z,998.62
2019-04-13T01:48:40.605Z,998.62
2019-04-13T01:49:40.693Z,998.62
2019-04-13T01:50:40.780Z,998.61
2019-04-13T01:51:40.869Z,998.60
2019-04-13T01:52:40.959Z,998.61
2019-04-13T01:53:41.042Z,998.58
2019-04-13T01:54:41.135Z,998.60
2019-04-13T01:55:41.219Z,998.58
2019-04-13T01:56:41.304Z,998.59
2019-04-13T01:57:41.391Z,998.61
2019-04-13T01:58:41.475Z,998.56
2019-04-13T01:59:41.559Z,998.54
2019-04-13T02:00:41.646Z,998.56
2019-04-13T02:01:41.733Z,998.53
2019-04-13T02:02:41.822Z,998.52
2019-04-13T02:03:41.909Z,998.54
2019-04-13T02:04:41.992Z,998.54
2019-04-13T02:05:42.076Z,998.53
2019-04-13T02:06:42.170Z,998.50
2019-04-13T02:07:42.249Z,998.49
2019-04-13T02:08:42.334Z,998.56
2019-04-13T02:09:42.415Z,998.56
2019-04-13T02:10:42.500Z,998.54
2019-04-13T02:11:42.589Z,998.45
2019-04-13T02:12:42.670Z,998.51
2019-04-13T02:13:42.758Z,998.54
2019-04-13T02:14:42.845Z,998.51
2019-04-13T02:15:42.938Z,998.49
2019-04-13T02:16:43.019Z,998.48
2019-04-13T02:17:43.107Z,998.53
2019-04-13T02:18:43.190Z,998.52
2019-04-13T02:19:43.277Z,998.50
2019-04-13T02:20:43.370Z,998.49
2019-04-13T02:21:43.450Z,998.50
2019-04-13T02:22:43.537Z,998.48
2019-04-13T02:23:43.623Z,998.48
2019-04-13T02:24:43.710Z,998.47
2019-04-13T02:25:43.799Z,998.48
2019-04-13T02:26:43.886Z,998.51
2019-04-13T02:27:43.976Z,998.47
2019-04-13T02:28:44.058Z,998.48
2019-04-13T02:29:44.142Z,998.47
2019-04-13T02:30:44.240Z,998.44
2019-04-13T02:31:44.320Z,998.46
2019-04-13T02:32:44.413Z,998.46
2019-04-13T02:33:44.497Z,998.47
2019-04-13T02:34:44.583Z,998.46
2019-04-13T02:35:44.676Z,998.44
2019-04-13T02:36:44.759Z,998.43
2019-04-13T02:37:44.848Z,998.42
2019-04-13T02:38:44.937Z,998.45
2019-04-13T02:39:45.024Z,998.45
2019-04-13T02:40:45.110Z,998.42
2019-04-13T02:41:45.202Z,998.41
2019-04-13T02:42:45.284Z,998.43
2019-04-13T02:43:45.370Z,998.42
2019-04-13T02:44:45.458Z,998.37
2019-04-13T02:45:45.544Z,998.41
2019-04-13T02:46:45.630Z,998.38
2019-04-13T02:47:45.717Z,998.37
2019-04-13T02:48:45.806Z,998.37
2019-04-13T02:49:45.892Z,998.38
2019-04-13T02:50:45.987Z,998.37
2019-04-13T02:51:46.056Z,998.37
2019-04-13T02:52:46.135Z,998.37
2019-04-13T02:53:46.221Z,998.35
2019-04-13T02:54:46.308Z,998.36
2019-04-13T02:55:46.391Z,998.35
2019-04-13T02:56:46.469Z,998.38
2019-04-13T02:57:46.565Z,998.35
2019-04-13T02:58:46.651Z,998.36
2019-04-13T02:59:46.736Z,998.36
2019-04-13T03:00:46.827Z,998.40
2019-04-13T03:01:46.911Z,998.36
2019-04-13T03:02:46.996Z,998.39
2019-04-13T03:03:47.088Z,998.37
2019-04-13T03:04:47.175Z,998.34
2019-04-13T03:05:47.483Z,998.37
2019-04-13T03:06:47.351Z,998.38
2019-04-13T03:07:47.439Z,998.40
2019-04-13T03:08:47.522Z,998.39
2019-04-13T03:09:47.608Z,998.41
2019-04-13T03:10:47.698Z,998.37
2019-04-13T03:11:47.786Z,998.39
2019-04-13T03:12:47.871Z,998.42
2019-04-13T03:13:47.966Z,998.37
2019-04-13T03:14:48.045Z,998.38
2019-04-13T03:15:48.135Z,998.39
2019-04-13T03:16:48.218Z,998.40
2019-04-13T03:17:48.306Z,998.40
2019-04-13T03:18:48.392Z,998.34
2019-04-13T03:19:48.513Z,998.35
2019-04-13T03:20:48.557Z,998.37
2019-04-13T03:21:48.644Z,998.37
2019-04-13T03:22:48.737Z,998.38
2019-04-13T03:23:48.819Z,998.38
2019-04-13T03:24:48.912Z,998.40
2019-04-13T03:25:48.995Z,998.35
2019-04-13T03:26:49.083Z,998.37
2019-04-13T03:27:49.172Z,998.38
2019-04-13T03:28:49.259Z,998.34
2019-04-13T03:29:49.344Z,998.35
2019-04-13T03:30:50.109Z,998.33
2019-04-13T03:31:49.539Z,998.35
2019-04-13T03:32:49.611Z,998.37
2019-04-13T03:33:49.702Z,998.37
2019-04-13T03:34:49.785Z,998.38
2019-04-13T03:35:58.674Z,998.34
2019-04-13T03:36:49.993Z,998.31
2019-04-13T03:37:50.078Z,998.34
2019-04-13T03:38:50.165Z,998.28
2019-04-13T03:39:50.246Z,998.29
2019-04-13T03:40:50.331Z,998.29
2019-04-13T03:41:50.423Z,998.27
2019-04-13T03:42:50.505Z,998.30
2019-04-13T03:43:50.593Z,998.31
2019-04-13T03:44:50.688Z,998.29
2019-04-13T03:45:50.774Z,998.24
2019-04-13T03:46:50.860Z,998.24
2019-04-13T03:47:50.945Z,998.28
2019-04-13T03:48:51.040Z,998.27
2019-04-13T03:49:51.119Z,998.27
2019-04-13T03:50:51.205Z,998.28
2019-04-13T03:51:51.292Z,998.22
2019-04-13T03:52:51.380Z,998.20
2019-04-13T03:53:51.468Z,998.26
2019-04-13T03:54:51.555Z,998.24
2019-04-13T03:55:51.643Z,998.24
2019-04-13T03:56:51.732Z,998.21
2019-04-13T03:57:51.821Z,998.22
2019-04-13T03:58:51.940Z,998.22
2019-04-13T03:59:51.992Z,998.22
2019-04-13T04:00:52.076Z,998.22
2019-04-13T04:01:52.171Z,998.21
2019-04-13T04:02:52.255Z,998.19
2019-04-13T04:03:52.342Z,998.20
2019-04-13T04:04:52.421Z,998.17
2019-04-13T04:05:52.526Z,998.14
2019-04-13T04:06:52.612Z,998.15
2019-04-13T04:07:52.701Z,998.11
2019-04-13T04:08:52.789Z,998.12
2019-04-13T04:09:52.879Z,998.15
2019-04-13T04:10:52.966Z,998.13
2019-04-13T04:11:53.052Z,998.11
2019-04-13T04:12:53.140Z,998.17
2019-04-13T04:13:53.223Z,998.17
2019-04-13T04:14:53.314Z,998.17
2019-04-13T04:15:53.400Z,998.12
2019-04-13T04:16:53.488Z,998.14
2019-04-13T04:17:53.575Z,998.15
2019-04-13T04:18:53.658Z,998.18
2019-04-13T04:19:53.742Z,998.21
2019-04-13T04:20:53.828Z,998.19
2019-04-13T04:21:53.916Z,998.20
2019-04-13T04:22:54.096Z,998.22
2019-04-13T04:23:54.099Z,998.19
2019-04-13T04:24:54.184Z,998.22
2019-04-13T04:25:54.273Z,998.21
2019-04-13T04:26:54.359Z,998.23
2019-04-13T04:27:54.458Z,998.20
2019-04-13T04:28:54.535Z,998.19
2019-04-13T04:29:54.623Z,998.22
2019-04-13T04:30:54.712Z,998.27
2019-04-13T04:31:54.804Z,998.26
2019-04-13T04:32:54.886Z,998.27
2019-04-13T04:33:54.973Z,998.33
2019-04-13T04:34:55.063Z,998.26
2019-04-13T04:35:55.152Z,998.25
2019-04-13T04:36:55.245Z,998.29
2019-04-13T04:37:55.329Z,998.29
2019-04-13T04:38:55.416Z,998.23
2019-04-13T04:39:55.502Z,998.27
2019-04-13T04:40:55.588Z,998.27
2019-04-13T04:41:55.677Z,998.31
2019-04-13T04:42:55.766Z,998.29
2019-04-13T04:43:55.854Z,998.34
2019-04-13T04:44:55.973Z,998.34
2019-04-13T04:45:56.022Z,998.38
2019-04-13T04:46:56.124Z,998.35
2019-04-13T04:47:56.187Z,998.35
2019-04-13T04:48:56.273Z,998.37
2019-04-13T04:49:56.363Z,998.33
2019-04-13T04:50:56.458Z,998.32
2019-04-13T04:51:56.545Z,998.34
2019-04-13T04:52:56.629Z,998.34
2019-04-13T04:53:56.717Z,998.33
2019-04-13T04:54:56.806Z,998.34
2019-04-13T04:55:56.919Z,998.38
2019-04-13T04:56:56.974Z,998.30
2019-04-13T04:57:57.066Z,998.32
2019-04-13T04:58:57.165Z,998.29
2019-04-13T04:59:57.246Z,998.34
2019-04-13T05:00:57.328Z,998.32
2019-04-13T05:01:57.413Z,998.35
2019-04-13T05:02:57.499Z,998.34
2019-04-13T05:03:57.594Z,998.30
2019-04-13T05:04:57.681Z,998.27
2019-04-13T05:05:57.765Z,998.32
2019-04-13T05:06:57.853Z,998.27
2019-04-13T05:08:10.222Z,998.29
2019-04-13T05:08:58.025Z,998.28
2019-04-13T05:09:58.123Z,998.28
2019-04-13T05:10:58.212Z,998.28
2019-04-13T05:11:58.298Z,998.25
2019-04-13T05:12:58.386Z,998.24
2019-04-13T05:13:58.481Z,998.28
2019-04-13T05:14:58.555Z,998.28
2019-04-13T05:15:58.640Z,998.27
2019-04-13T05:16:58.727Z,998.28
2019-04-13T05:17:58.816Z,998.31
2019-04-13T05:18:58.901Z,998.30
2019-04-13T05:19:58.988Z,998.32
2019-04-13T05:20:59.074Z,998.29
2019-04-13T05:21:59.166Z,998.30
2019-04-13T05:22:59.250Z,998.33
2019-04-13T05:23:59.339Z,998.31
2019-04-13T05:24:59.425Z,998.32
2019-04-13T05:25:59.510Z,998.38
2019-04-13T05:26:59.601Z,998.34
2019-04-13T05:27:59.690Z,998.32
2019-04-13T05:28:59.778Z,998.31
2019-04-13T05:29:59.866Z,998.36
2019-04-13T05:30:59.945Z,998.36
2019-04-13T05:32:00.060Z,998.40
2019-04-13T05:33:00.148Z,998.37
2019-04-13T05:34:00.245Z,998.40
2019-04-13T05:35:00.326Z,998.34
2019-04-13T05:36:00.418Z,998.39
2019-04-13T05:37:00.534Z,998.41
2019-04-13T05:38:00.582Z,998.40
2019-04-13T05:39:00.659Z,998.41
2019-04-13T05:40:00.748Z,998.45
2019-04-13T05:41:00.837Z,998.42
2019-04-13T05:42:00.929Z,998.43
2019-04-13T05:43:01.013Z,998.40
2019-04-13T05:44:01.106Z,998.43
2019-04-13T05:45:01.192Z,998.39
2019-04-13T05:46:01.279Z,998.46
2019-04-13T05:47:01.370Z,998.45
2019-04-13T05:48:01.455Z,998.44
2019-04-13T05:49:01.542Z,998.39
2019-04-13T05:50:01.636Z,998.45
2019-04-13T05:51:01.718Z,998.45
2019-04-13T05:52:02.156Z,998.44
2019-04-13T05:53:01.935Z,998.43
2019-04-13T05:54:02.010Z,998.46
2019-04-13T05:55:02.064Z,998.47
2019-04-13T05:56:02.152Z,998.47
2019-04-13T05:57:02.238Z,998.48
2019-04-13T05:58:02.328Z,998.42
2019-04-13T05:59:03.594Z,998.44
2019-04-13T06:00:02.493Z,998.42
2019-04-13T06:01:02.595Z,998.42
2019-04-13T06:02:02.669Z,998.44
2019-04-13T06:03:02.762Z,998.41
2019-04-13T06:04:05.506Z,998.47
2019-04-13T06:05:02.939Z,998.50
2019-04-13T06:06:03.027Z,998.44
2019-04-13T06:07:03.113Z,998.46
2019-04-13T06:08:03.205Z,998.44
2019-04-13T06:09:03.289Z,998.46
2019-04-13T06:10:03.378Z,998.47
2019-04-13T06:11:03.490Z,998.44
2019-04-13T06:12:03.549Z,998.47
2019-04-13T06:13:03.635Z,998.48
2019-04-13T06:14:03.724Z,998.48
2019-04-13T06:15:03.824Z,998.46
2019-04-13T06:16:06.663Z,998.48
2019-04-13T06:17:04.005Z,998.51
2019-04-13T06:18:05.665Z,998.50
2019-04-13T06:19:04.180Z,998.51
2019-04-13T06:20:04.268Z,998.49
2019-04-13T06:21:06.661Z,998.52
2019-04-13T06:22:04.441Z,998.56
2019-04-13T06:23:04.530Z,998.57
2019-04-13T06:24:04.616Z,998.54
2019-04-13T06:25:09.222Z,998.55
2019-04-13T06:26:04.789Z,998.56
2019-04-13T06:27:04.876Z,998.53
2019-04-13T06:28:04.968Z,998.53
2019-04-13T06:29:05.128Z,998.54
2019-04-13T06:30:05.142Z,998.57
2019-04-13T06:31:05.227Z,998.54
2019-04-13T06:32:05.318Z,998.55
2019-04-13T06:33:05.403Z,998.49
2019-04-13T06:34:05.491Z,998.51
2019-04-13T06:35:05.579Z,998.54
2019-04-13T06:36:08.469Z,998.53
2019-04-13T06:37:12.165Z,998.55
2019-04-13T06:38:05.843Z,998.53
2019-04-13T06:39:05.928Z,998.58
2019-04-13T06:40:07.909Z,998.52
2019-04-13T06:41:06.122Z,998.55
2019-04-13T06:42:06.218Z,998.61
2019-04-13T06:43:06.307Z,998.54
2019-04-13T06:44:06.398Z,998.54
2019-04-13T06:45:06.493Z,998.55
2019-04-13T06:46:06.581Z,998.59
2019-04-13T06:47:06.666Z,998.57
2019-04-13T06:48:13.908Z,998.56
2019-04-13T06:49:06.873Z,998.53
2019-04-13T06:50:06.961Z,998.54
2019-04-13T06:51:07.051Z,998.54
2019-04-13T06:52:07.131Z,998.54
2019-04-13T06:53:08.085Z,998.46
2019-04-13T06:54:07.306Z,998.50
2019-04-13T06:55:07.394Z,998.47
2019-04-13T06:56:07.486Z,998.52
2019-04-13T06:57:07.569Z,998.51
2019-04-13T06:58:07.661Z,998.53
2019-04-13T06:59:07.749Z,998.54
2019-04-13T07:00:11.864Z,998.52
2019-04-13T07:01:07.928Z,998.52
2019-04-13T07:02:08.046Z,998.51
2019-04-13T07:03:08.111Z,998.50
2019-04-13T07:04:08.193Z,998.57
2019-04-13T07:05:08.280Z,998.65
2019-04-13T07:06:08.368Z,998.64
2019-04-13T07:07:08.572Z,998.64
2019-04-13T07:08:08.545Z,998.63
2019-04-13T07:09:08.633Z,998.62
2019-04-13T07:10:08.724Z,998.63
2019-04-13T07:11:08.810Z,998.63
2019-04-13T07:12:08.901Z,998.64
2019-04-13T07:13:08.986Z,998.66
2019-04-13T07:14:09.077Z,998.65
2019-04-13T07:15:09.166Z,998.63
2019-04-13T07:16:10.671Z,998.63
2019-04-13T07:17:09.343Z,998.63
2019-04-13T07:18:09.431Z,998.63
2019-04-13T07:19:09.521Z,998.65
2019-04-13T07:20:09.619Z,998.64
2019-04-13T07:21:09.713Z,998.64
2019-04-13T07:22:09.799Z,998.60
2019-04-13T07:23:09.881Z,998.60
2019-04-13T07:24:09.973Z,998.62
2019-04-13T07:25:10.725Z,998.59
2019-04-13T07:26:11.282Z,998.57
2019-04-13T07:27:10.266Z,998.61
2019-04-13T07:28:10.357Z,998.59
2019-04-13T07:29:10.446Z,998.59
2019-04-13T07:30:13.749Z,998.57
2019-04-13T07:31:10.622Z,998.59
2019-04-13T07:32:10.712Z,998.62
2019-04-13T07:33:10.801Z,998.61
2019-04-13T07:34:10.888Z,998.61
2019-04-13T07:35:10.978Z,998.62
2019-04-13T07:36:11.520Z,998.60
2019-04-13T07:37:12.361Z,998.65
2019-04-13T07:38:13.258Z,998.59
2019-04-13T07:39:11.328Z,998.58
2019-04-13T07:40:11.416Z,998.61
2019-04-13T07:41:11.503Z,998.66
2019-04-13T07:42:11.592Z,998.70
2019-04-13T07:43:11.685Z,998.65
2019-04-13T07:44:11.770Z,998.65
2019-04-13T07:45:11.858Z,998.71
2019-04-13T07:46:11.949Z,998.68
2019-04-13T07:47:12.041Z,998.66
2019-04-13T07:48:12.129Z,998.69
2019-04-13T07:49:13.982Z,998.69
2019-04-13T07:50:12.303Z,998.70
2019-04-13T07:51:12.395Z,998.65
2019-04-13T07:52:12.486Z,998.70
2019-04-13T07:53:12.575Z,998.70
2019-04-13T07:54:12.659Z,998.68
2019-04-13T07:55:12.755Z,998.65
2019-04-13T07:56:12.844Z,998.70
2019-04-13T07:57:12.930Z,998.70
2019-04-13T07:58:15.867Z,998.65
2019-04-13T07:59:13.111Z,998.71
2019-04-13T08:00:13.201Z,998.69
2019-04-13T08:01:13.295Z,998.69
2019-04-13T08:02:13.372Z,998.66
2019-04-13T08:03:13.465Z,998.73
2019-04-13T08:04:13.561Z,998.70
2019-04-13T08:05:13.642Z,998.70
2019-04-13T08:06:13.729Z,998.69
2019-04-13T08:07:13.819Z,998.70
2019-04-13T08:08:13.901Z,998.67
2019-04-13T08:09:13.987Z,998.67
2019-04-13T08:10:14.078Z,998.67
2019-04-13T08:11:14.165Z,998.64
2019-04-13T08:12:16.795Z,998.60
2019-04-13T08:13:14.349Z,998.61
2019-04-13T08:14:14.459Z,998.58
2019-04-13T08:15:14.546Z,998.60
2019-04-13T08:16:14.638Z,998.63
2019-04-13T08:17:14.725Z,998.57
2019-04-13T08:18:14.811Z,998.59
2019-04-13T08:19:14.904Z,998.60
2019-04-13T08:20:14.993Z,998.60
2019-04-13T08:21:15.082Z,998.58
2019-04-13T08:22:15.169Z,998.55
2019-04-13T08:23:15.257Z,998.58
2019-04-13T08:24:15.372Z,998.58
2019-04-13T08:26:58.013Z,998.61
2019-04-13T08:27:58.092Z,998.63
2019-04-13T08:28:58.182Z,998.63
2019-04-13T08:29:58.271Z,998.62
2019-04-13T08:30:58.362Z,998.62
2019-04-13T08:32:01.726Z,998.67
2019-04-13T08:33:00.937Z,998.65
2019-04-13T08:33:58.618Z,998.68
2019-04-13T08:34:59.902Z,998.60
2019-04-13T08:35:58.796Z,998.64
2019-04-13T08:37:03.484Z,998.60
2019-04-13T08:38:12.104Z,998.62
2019-04-13T08:38:59.509Z,998.58
2019-04-13T08:40:02.457Z,998.57
2019-04-13T08:41:10.995Z,998.59
2019-04-13T08:41:59.332Z,998.58
2019-04-13T08:42:59.938Z,998.51
2019-04-13T08:43:59.582Z,998.58
2019-04-13T08:44:59.600Z,998.55
2019-04-13T08:45:59.688Z,998.54
2019-04-13T08:46:59.784Z,998.57
2019-04-13T08:47:59.866Z,998.58
2019-04-13T08:48:59.953Z,998.55
2019-04-13T08:50:00.049Z,998.52
2019-04-13T08:51:00.137Z,998.53
2019-04-13T08:52:00.227Z,998.52
2019-04-13T08:53:00.314Z,998.49
2019-04-13T08:54:00.413Z,998.48
2019-04-13T08:55:00.500Z,998.44
2019-04-13T08:56:00.592Z,998.48
2019-04-13T08:57:02.207Z,998.50
2019-04-13T08:58:00.770Z,998.49
2019-04-13T08:59:01.983Z,998.47
2019-04-13T09:00:00.946Z,998.45
2019-04-13T09:01:01.036Z,998.43
2019-04-13T09:02:01.128Z,998.44
2019-04-13T09:03:01.218Z,998.44
2019-04-13T09:04:01.305Z,998.36
2019-04-13T09:05:04.259Z,998.40
2019-04-13T09:06:01.486Z,998.40
2019-04-13T09:07:01.575Z,998.42
2019-04-13T09:08:01.664Z,998.42
2019-04-13T09:09:02.873Z,998.34
2019-04-13T09:10:02.914Z,998.42
2019-04-13T09:11:02.214Z,998.39
2019-04-13T09:12:06.842Z,998.32
2019-04-13T09:13:02.117Z,998.33
2019-04-13T09:14:05.610Z,998.32
2019-04-13T09:15:02.303Z,998.31
2019-04-13T09:16:02.389Z,998.31
2019-04-13T09:17:02.484Z,998.28
2019-04-13T09:18:04.159Z,998.30
2019-04-13T09:19:05.730Z,998.29
2019-04-13T09:20:03.660Z,998.34
2019-04-13T09:21:04.920Z,998.31
2019-04-13T09:22:02.937Z,998.35
2019-04-13T09:23:03.041Z,998.36
2019-04-13T09:24:03.156Z,998.39
2019-04-13T09:25:03.243Z,998.41
2019-04-13T09:26:03.338Z,998.40
2019-04-13T09:27:07.238Z,998.35
2019-04-13T09:28:03.526Z,998.26
2019-04-13T09:29:03.616Z,998.39
2019-04-13T09:30:03.708Z,998.43
2019-04-13T09:31:03.794Z,998.35
2019-04-13T09:32:03.885Z,998.33
2019-04-13T09:33:04.292Z,998.25
2019-04-13T09:34:04.068Z,998.22
2019-04-13T09:35:04.161Z,998.25
2019-04-13T09:36:04.315Z,998.19
2019-04-13T09:37:04.331Z,998.23
2019-04-13T09:38:06.376Z,998.23
2019-04-13T09:39:04.510Z,998.26
2019-04-13T09:40:04.600Z,998.29
2019-04-13T09:41:04.696Z,998.28
2019-04-13T09:42:04.779Z,998.22
2019-04-13T09:43:04.869Z,998.27
2019-04-13T09:44:04.958Z,998.28
2019-04-13T09:45:05.048Z,998.27
2019-04-13T09:46:06.447Z,998.28
2019-04-13T09:47:06.356Z,998.23
2019-04-13T09:48:05.331Z,998.21
2019-04-13T09:49:05.422Z,998.26
2019-04-13T09:50:05.515Z,998.23
2019-04-13T09:51:05.603Z,998.22
2019-04-13T09:52:05.694Z,998.24
2019-04-13T09:53:05.789Z,998.22
2019-04-13T09:54:05.879Z,998.22
2019-04-13T09:55:05.970Z,998.20
2019-04-13T09:56:06.059Z,998.20
2019-04-13T09:57:06.147Z,998.23
2019-04-13T09:58:06.235Z,998.20
2019-04-13T09:59:10.786Z,998.20
2019-04-13T10:00:06.428Z,998.18
2019-04-13T10:01:06.516Z,998.20
2019-04-13T10:02:06.604Z,998.19
2019-04-13T10:03:08.334Z,998.16
2019-04-13T10:04:06.790Z,998.17
2019-04-13T10:05:06.869Z,998.22
2019-04-13T10:06:06.959Z,998.17
2019-04-13T10:07:09.052Z,998.18
2019-04-13T10:08:07.138Z,998.20
2019-04-13T10:09:08.597Z,998.15
2019-04-13T10:10:07.313Z,998.16
2019-04-13T10:11:07.405Z,998.16
2019-04-13T10:12:07.510Z,998.13
2019-04-13T10:13:07.599Z,998.12
2019-04-13T10:14:07.689Z,998.07
2019-04-13T10:15:07.779Z,998.10
2019-04-13T10:16:07.864Z,998.05
2019-04-13T10:17:07.957Z,998.04
2019-04-13T10:18:08.044Z,998.06
2019-04-13T10:19:08.132Z,998.09
2019-04-13T10:20:10.675Z,998.08
2019-04-13T10:21:10.702Z,998.11
2019-04-13T10:22:08.397Z,998.04
2019-04-13T10:23:08.487Z,998.02
2019-04-13T10:24:08.577Z,998.08
2019-04-13T10:25:08.659Z,998.12
2019-04-13T10:26:11.298Z,998.09
2019-04-13T10:27:08.835Z,998.08
2019-04-13T10:28:08.933Z,998.05
2019-04-13T10:29:09.017Z,998.04
2019-04-13T10:30:09.103Z,998.11
2019-04-13T10:31:09.193Z,998.01
2019-04-13T10:32:09.283Z,998.04
2019-04-13T10:33:09.376Z,997.96
2019-04-13T10:34:09.465Z,997.96
2019-04-13T10:35:09.553Z,997.96
2019-04-13T10:36:09.651Z,997.94
2019-04-13T10:37:09.739Z,997.98
2019-04-13T10:38:09.854Z,997.98
2019-04-13T10:39:09.909Z,997.94
2019-04-13T10:40:11.907Z,997.95
2019-04-13T10:41:10.085Z,997.88
2019-04-13T10:42:10.177Z,997.89
2019-04-13T10:43:10.267Z,997.90
2019-04-13T10:44:10.366Z,997.85
2019-04-13T10:45:10.667Z,997.88
2019-04-13T10:46:10.534Z,997.87
2019-04-13T10:47:10.617Z,997.86
2019-04-13T10:48:10.734Z,997.85
2019-04-13T10:49:10.822Z,997.84
2019-04-13T10:50:10.908Z,997.80
2019-04-13T10:51:11.000Z,997.82
2019-04-13T10:52:11.092Z,997.77
2019-04-13T10:53:11.176Z,997.77
2019-04-13T10:54:11.266Z,997.75
2019-04-13T10:55:11.356Z,997.74
2019-04-13T10:56:11.445Z,997.71
2019-04-13T10:57:11.533Z,997.77
2019-04-13T10:58:11.628Z,997.80
2019-04-13T10:59:11.722Z,997.79
2019-04-13T11:00:11.807Z,997.75
2019-04-13T11:01:14.614Z,997.75
2019-04-13T11:02:21.697Z,997.81
2019-04-13T11:03:12.118Z,997.78
2019-04-13T11:04:12.206Z,997.73
2019-04-13T11:05:12.297Z,997.79
2019-04-13T11:06:12.385Z,997.78
2019-04-13T11:07:12.475Z,997.76
2019-04-13T11:08:12.562Z,997.73
2019-04-13T11:09:21.291Z,997.70
2019-04-13T11:10:12.737Z,997.71
2019-04-13T11:11:12.830Z,997.63
2019-04-13T11:12:12.919Z,997.66
2019-04-13T11:13:13.006Z,997.63
2019-04-13T11:14:13.096Z,997.62
2019-04-13T11:15:13.184Z,997.62
2019-04-13T11:16:13.277Z,997.63
2019-04-13T11:17:13.363Z,997.63
2019-04-13T11:18:13.483Z,997.58
2019-04-13T11:19:13.587Z,997.60
2019-04-13T11:20:14.562Z,997.60
2019-04-13T11:21:14.355Z,997.57
2019-04-13T11:22:13.862Z,997.54
2019-04-13T11:23:13.958Z,997.56
2019-04-13T11:24:14.054Z,997.55
2019-04-13T11:25:14.155Z,997.61
2019-04-13T11:26:14.252Z,997.54
2019-04-13T11:27:14.343Z,997.58
2019-04-13T11:28:14.486Z,997.57
2019-04-13T11:29:14.548Z,997.55
2019-04-13T11:30:14.652Z,997.57
2019-04-13T11:31:14.744Z,997.57
2019-04-13T11:32:14.858Z,997.54
2019-04-13T11:33:14.935Z,997.58
2019-04-13T11:34:15.031Z,997.50
2019-04-13T11:35:15.115Z,997.49
2019-04-13T11:36:15.225Z,997.49
2019-04-13T11:37:15.320Z,997.47
2019-04-13T11:38:18.471Z,997.51
2019-04-13T11:39:15.511Z,997.52
2019-04-13T11:40:15.614Z,997.43
2019-04-13T11:41:15.712Z,997.46
2019-04-13T11:42:15.800Z,997.49
2019-04-13T11:43:15.901Z,997.47
2019-04-13T11:44:15.997Z,997.39
2019-04-13T11:45:16.090Z,997.46
2019-04-13T11:46:16.182Z,997.47
2019-04-13T11:47:16.276Z,997.45
2019-04-13T11:48:16.386Z,997.49
2019-04-13T11:49:16.497Z,997.46
2019-04-13T11:50:16.578Z,997.50
2019-04-13T11:51:16.673Z,997.40
2019-04-13T11:52:16.827Z,997.39
2019-04-13T11:53:16.860Z,997.46
2019-04-13T11:54:16.953Z,997.44
2019-04-13T11:55:17.039Z,997.42
2019-04-13T11:56:17.133Z,997.45
2019-04-13T11:57:17.232Z,997.45
2019-04-13T11:58:17.333Z,997.40
2019-04-13T11:59:17.484Z,997.43
2019-04-13T12:00:17.520Z,997.44
2019-04-13T12:01:17.618Z,997.41
2019-04-13T12:02:17.722Z,997.41
2019-04-13T12:03:17.811Z,997.45
2019-04-13T12:04:17.914Z,997.44
2019-04-13T12:05:18.004Z,997.45
2019-04-13T12:06:18.099Z,997.41
2019-04-13T12:07:18.183Z,997.40
2019-04-13T12:08:18.275Z,997.34
2019-04-13T12:09:18.379Z,997.38
2019-04-13T12:10:21.539Z,997.37
2019-04-13T12:11:19.077Z,997.40
2019-04-13T12:12:18.667Z,997.40
2019-04-13T12:13:18.765Z,997.34
2019-04-13T12:14:18.857Z,997.39
2019-04-13T12:15:18.953Z,997.37
2019-04-13T12:16:19.047Z,997.36
2019-04-13T12:17:19.144Z,997.37
2019-04-13T12:18:20.045Z,997.42
2019-04-13T12:22:01.953Z,997.29
2019-04-13T12:23:02.041Z,997.28
2019-04-13T12:24:02.134Z,997.22
2019-04-13T12:25:02.230Z,997.24
2019-04-13T12:26:02.307Z,997.20
2019-04-13T12:27:02.391Z,997.25
2019-04-13T12:28:02.486Z,997.20
2019-04-13T12:29:02.581Z,997.29
2019-04-13T12:30:02.676Z,997.25
2019-04-13T12:31:02.756Z,997.27
2019-04-13T12:32:02.846Z,997.26
2019-04-13T12:33:02.939Z,997.28
2019-04-13T12:34:03.506Z,997.29